Time;durP1;ratioP1;P1;durP2;ratioP2;P2;SDS_P1;SDS_P2;PMS_P1;PMS_P2;Temp;Humidity;BMP_temperature;BMP_pressure;BME280_temperature;BME280_humidity;BME280_pressure;Samples;Min_cycle;Max_cycle;Signal;HPM_P1;HPM_P2
2022/05/01 00:02:05;;;;;;;5.57;5.07;;;;;;;10.71;57.73;101424.75;5030040;28;20507;-25
2022/05/01 00:04:31;;;;;;;6.13;5.35;;;;;;;10.69;57.86;101426.47;5028641;28;20473;-24
2022/05/01 00:06:56;;;;;;;7.95;5.57;;;;;;;10.69;57.88;101421.22;5029082;28;20076;-24
2022/05/01 00:09:22;;;;;;;6.60;6.00;;;;;;;10.67;57.58;101422.97;5028572;28;20042;-24
2022/05/01 00:11:47;;;;;;;8.57;5.63;;;;;;;10.65;57.89;101418.59;5029160;28;20060;-25
2022/05/01 00:14:13;;;;;;;11.20;5.32;;;;;;;10.64;57.43;101414.16;5028007;28;21213;-25
2022/05/01 00:16:38;;;;;;;6.05;5.45;;;;;;;10.60;57.55;101407.13;5029650;28;20029;-24
2022/05/01 00:19:03;;;;;;;8.70;4.93;;;;;;;10.59;57.50;101408.00;5030522;28;20028;-25
2022/05/01 00:21:29;;;;;;;6.75;4.97;;;;;;;10.58;57.46;101403.63;5027244;28;20130;-24
2022/05/01 00:23:54;;;;;;;5.90;4.68;;;;;;;10.58;57.48;101408.91;5029028;28;20033;-25
2022/05/01 00:26:19;;;;;;;5.20;4.72;;;;;;;10.56;57.70;101401.81;5029310;28;20034;-24
2022/05/01 00:28:45;;;;;;;5.93;4.93;;;;;;;10.54;57.63;101399.22;5028089;28;20087;-24
2022/05/01 00:31:10;;;;;;;5.18;4.57;;;;;;;10.53;57.61;101410.63;5028195;28;20211;-25
2022/05/01 00:36:27;;;;;;;7.68;4.97;;;;;;;10.51;57.64;101410.59;5028225;28;20051;-26
2022/05/01 00:38:56;;;;;;;6.53;4.57;;;;;;;10.50;57.47;101413.25;5041474;28;20060;-24
2022/05/01 00:41:23;;;;;;;6.30;5.05;;;;;;;10.48;57.24;101412.38;5029833;28;20043;-26
2022/05/01 00:43:59;;;;;;;7.15;4.50;;;;;;;10.46;57.70;101417.63;5027611;28;20034;-25
2022/05/01 00:46:24;;;;;;;6.32;4.45;;;;;;;10.44;57.60;101400.88;5027910;28;20032;-26
2022/05/01 00:48:50;;;;;;;4.57;3.75;;;;;;;10.43;57.67;101409.69;5025740;28;20025;-27
2022/05/01 00:51:16;;;;;;;5.45;4.40;;;;;;;10.43;57.71;101416.72;5027606;28;20413;-24
2022/05/01 00:53:43;;;;;;;3.97;3.58;;;;;;;10.42;57.82;101407.91;5026655;28;20091;-24
2022/05/01 00:56:08;;;;;;;7.35;4.63;;;;;;;10.39;57.65;101403.53;5028223;28;20032;-25
2022/05/01 00:58:34;;;;;;;4.93;4.22;;;;;;;10.40;57.55;101407.03;5024577;28;20025;-24
2022/05/01 01:00:59;;;;;;;4.25;3.85;;;;;;;10.38;57.75;101412.28;5042926;28;20112;-27
2022/05/01 01:03:25;;;;;;;4.28;3.85;;;;;;;10.36;57.46;101411.41;5027752;28;20032;-24
2022/05/01 01:05:50;;;;;;;5.57;3.85;;;;;;;10.36;57.57;101408.78;5029464;28;20112;-26
2022/05/01 01:08:15;;;;;;;4.85;3.75;;;;;;;10.35;57.40;101408.78;5026848;28;20132;-25
2022/05/01 01:10:40;;;;;;;4.55;4.15;;;;;;;10.35;57.55;101407.03;5022853;28;20123;-28
2022/05/01 01:13:06;;;;;;;4.20;3.30;;;;;;;10.33;57.41;101414.03;5024300;28;20563;-24
2022/05/01 01:15:36;;;;;;;4.07;3.42;;;;;;;10.34;56.99;101412.28;5025153;28;20037;-26
2022/05/01 01:18:01;;;;;;;5.28;3.38;;;;;;;10.33;57.26;101423.69;5024384;28;20493;-24
2022/05/01 01:20:31;;;;;;;4.57;3.85;;;;;;;10.31;57.26;101421.09;5024412;28;20106;-26
2022/05/01 01:22:58;;;;;;;4.97;3.58;;;;;;;10.29;57.11;101414.00;5022393;28;20063;-25
2022/05/01 01:25:31;;;;;;;5.10;3.53;;;;;;;10.27;57.03;101419.28;5028097;28;20028;-25
2022/05/01 01:28:02;;;;;;;4.13;3.72;;;;;;;10.26;57.51;101421.06;5027838;28;20447;-24
2022/05/01 01:33:11;;;;;;;4.05;3.65;;;;;;;10.24;56.96;101421.94;5030416;28;19924;-25
2022/05/01 01:35:38;;;;;;;3.45;3.10;;;;;;;10.24;57.31;101414.88;5029370;28;20029;-26
2022/05/01 01:38:03;;;;;;;4.00;3.50;;;;;;;10.22;56.95;101421.03;5027214;28;20026;-24
2022/05/01 01:40:31;;;;;;;3.55;3.25;;;;;;;10.21;56.84;101422.75;5027700;28;20116;-24
2022/05/01 01:42:58;;;;;;;4.95;3.00;;;;;;;10.22;57.14;101431.56;5025674;28;20025;-26
2022/05/01 01:45:28;;;;;;;3.08;2.78;;;;;;;10.19;57.09;101431.53;5026735;28;20555;-25
2022/05/01 01:47:57;;;;;;;3.88;2.97;;;;;;;10.19;57.29;101421.00;5028468;28;20083;-26
2022/05/01 01:50:23;;;;;;;5.60;3.30;;;;;;;10.18;57.31;101429.78;5026418;28;20032;-24
2022/05/01 01:52:48;;;;;;;6.32;4.00;;;;;;;10.15;57.32;101420.13;5027760;28;20438;-24
2022/05/01 01:55:17;;;;;;;5.25;3.15;;;;;;;10.17;57.10;101422.78;5027102;28;20500;-26
2022/05/01 01:57:45;;;;;;;3.67;3.38;;;;;;;10.13;57.33;101414.84;5041065;28;20064;-31
2022/05/01 02:00:11;;;;;;;5.13;3.38;;;;;;;10.12;57.13;101421.00;5024726;28;20026;-25
2022/05/01 02:02:37;;;;;;;4.50;3.25;;;;;;;10.12;57.27;101418.34;5022367;28;20034;-24
2022/05/01 02:05:03;;;;;;;4.70;3.15;;;;;;;10.12;57.09;101415.72;5026182;28;20024;-25
2022/05/01 02:07:30;;;;;;;3.45;3.15;;;;;;;10.10;57.19;101416.56;5024983;28;20035;-24
2022/05/01 02:09:56;;;;;;;3.75;3.20;;;;;;;10.11;57.12;101418.34;5025425;28;20433;-24
2022/05/01 02:12:21;;;;;;;3.30;3.00;;;;;;;10.09;56.96;101415.69;5028123;28;20080;-24
2022/05/01 02:14:47;;;;;;;4.03;3.38;;;;;;;10.07;57.22;101416.56;5025024;28;20033;-24
2022/05/01 02:17:12;;;;;;;4.90;3.10;;;;;;;10.07;57.30;101411.31;5026238;28;20036;-27
2022/05/01 02:19:37;;;;;;;2.90;2.70;;;;;;;10.06;57.01;101422.69;5023822;28;20401;-26
2022/05/01 02:22:03;;;;;;;4.80;3.10;;;;;;;10.05;57.01;101416.56;5025290;28;20513;-24
2022/05/01 02:24:30;;;;;;;3.67;3.00;;;;;;;10.03;57.12;101420.94;5024022;28;20056;-26
2022/05/01 02:26:55;;;;;;;3.50;2.63;;;;;;;10.03;57.27;101417.44;5025046;28;20025;-25
2022/05/01 02:29:21;;;;;;;2.88;2.67;;;;;;;10.02;57.01;101424.44;5022174;28;20033;-25
2022/05/01 02:31:50;;;;;;;3.28;2.95;;;;;;;10.00;56.85;101415.63;5022664;28;20037;-25
2022/05/01 02:34:16;;;;;;;3.33;3.03;;;;;;;10.00;56.74;101418.28;5026782;28;20138;-25
2022/05/01 02:36:42;;;;;;;3.40;2.88;;;;;;;9.98;57.14;101418.25;5026303;28;20032;-25
2022/05/01 02:39:07;;;;;;;3.97;3.60;;;;;;;9.99;57.06;101424.44;5028331;28;20025;-25
2022/05/01 02:41:33;;;;;;;3.45;3.15;;;;;;;9.92;56.92;101414.72;5027211;28;20037;-25
2022/05/01 02:43:58;;;;;;;3.67;3.33;;;;;;;9.94;56.84;101421.75;5029078;28;20056;-25
2022/05/01 02:46:26;;;;;;;4.28;3.00;;;;;;;9.96;57.00;101419.13;5013777;28;20396;-25
2022/05/01 02:48:51;;;;;;;3.95;2.90;;;;;;;9.92;57.07;101409.44;5030009;28;20033;-25
2022/05/01 02:51:17;;;;;;;3.08;2.88;;;;;;;9.93;57.22;101412.09;5029733;28;20386;-25
2022/05/01 02:53:43;;;;;;;3.05;2.75;;;;;;;9.90;57.29;101408.56;5030744;28;20021;-25
2022/05/01 02:56:09;;;;;;;3.72;2.88;;;;;;;9.91;56.94;101415.59;5027379;28;20564;-25
2022/05/01 02:58:35;;;;;;;3.20;2.90;;;;;;;9.90;57.20;101405.94;5031455;28;20115;-25
2022/05/01 03:01:00;;;;;;;4.63;3.45;;;;;;;9.88;56.97;101405.94;5030502;28;20040;-25
2022/05/01 03:03:26;;;;;;;3.45;3.15;;;;;;;9.86;56.98;101413.81;5029047;28;20543;-25
2022/05/01 03:05:52;;;;;;;3.90;3.38;;;;;;;9.85;57.27;101412.06;5030135;28;20132;-25
2022/05/01 03:08:17;;;;;;;4.00;2.72;;;;;;;9.85;56.92;101406.81;5030878;28;20040;-25
2022/05/01 03:10:43;;;;;;;3.65;3.22;;;;;;;9.83;57.25;101402.38;5031093;28;20030;-25
2022/05/01 03:13:09;;;;;;;4.75;3.00;;;;;;;9.83;57.04;101405.00;5024487;28;20076;-25
2022/05/01 03:15:34;;;;;;;3.88;3.35;;;;;;;9.81;57.08;101405.03;5030234;28;20513;-25
2022/05/01 03:23:27;;;;;;;4.72;3.47;;;;;;;9.77;57.23;101397.09;5032079;28;20559;-25
2022/05/01 03:25:52;;;;;;;5.80;3.28;;;;;;;9.75;57.24;101395.34;5027684;28;20025;-25
2022/05/01 03:28:17;;;;;;;4.28;3.50;;;;;;;9.75;57.19;101402.34;5030713;28;20024;-25
2022/05/01 03:30:43;;;;;;;4.53;3.78;;;;;;;9.73;57.29;101406.72;5028097;28;20071;-25
2022/05/01 03:33:08;;;;;;;4.20;3.60;;;;;;;9.73;57.25;101404.06;5029405;28;20105;-25
2022/05/01 03:35:38;;;;;;;3.80;3.42;;;;;;;9.71;57.42;101413.72;5031278;28;20026;-25
2022/05/01 03:38:04;;;;;;;4.43;3.30;;;;;;;9.72;57.34;101412.84;5029019;28;20025;-25
2022/05/01 03:40:30;;;;;;;3.78;3.10;;;;;;;9.68;57.42;101409.34;5031410;28;20037;-25
2022/05/01 03:42:56;;;;;;;3.60;3.30;;;;;;;9.68;57.20;101413.72;5028990;28;20025;-25
2022/05/01 03:45:21;;;;;;;3.58;3.28;;;;;;;9.66;57.09;101404.91;5024195;28;20021;-25
2022/05/01 03:47:46;;;;;;;4.03;3.45;;;;;;;9.66;57.22;101404.91;5024812;28;20025;-25
2022/05/01 03:50:12;;;;;;;3.58;3.28;;;;;;;9.65;57.09;101411.94;5029790;28;20490;-25
2022/05/01 03:52:37;;;;;;;3.65;3.28;;;;;;;9.64;57.13;101415.47;5029433;28;20017;-25
2022/05/01 03:55:03;;;;;;;4.18;3.20;;;;;;;9.62;57.23;101412.81;5025945;28;20461;-25
2022/05/01 03:57:28;;;;;;;3.70;3.30;;;;;;;9.61;57.17;101413.66;5031110;28;20629;-25
2022/05/01 03:59:53;;;;;;;5.47;3.65;;;;;;;9.61;57.55;101413.66;5030888;28;20465;-25
2022/05/01 04:02:19;;;;;;;3.90;3.50;;;;;;;9.60;57.19;101411.91;5007703;28;20087;-25
2022/05/01 04:04:48;;;;;;;3.47;3.10;;;;;;;9.60;57.34;101411.00;5029157;28;20113;-25
2022/05/01 04:07:14;;;;;;;4.75;3.80;;;;;;;9.57;57.66;101409.25;5029067;28;20022;-25
2022/05/01 04:09:39;;;;;;;5.65;3.50;;;;;;;9.57;57.49;101411.88;5030221;28;20107;-25
2022/05/01 04:12:05;;;;;;;4.00;3.60;;;;;;;9.55;57.49;101412.75;5028466;28;20021;-25
2022/05/01 04:14:32;;;;;;;4.32;3.60;;;;;;;9.56;57.43;101414.50;5028345;28;20044;-25
2022/05/01 04:16:58;;;;;;;4.00;3.60;;;;;;;9.55;57.50;101413.63;5030989;28;20025;-25
2022/05/01 04:19:24;;;;;;;9.10;3.70;;;;;;;9.52;57.43;101421.50;5027414;28;20535;-25
2022/05/01 04:21:49;;;;;;;4.40;3.35;;;;;;;9.53;57.65;101419.75;5024590;28;20060;-25
2022/05/01 04:24:15;;;;;;;5.35;3.30;;;;;;;9.51;57.33;101414.47;5028022;28;20037;-25
2022/05/01 04:26:40;;;;;;;4.25;3.78;;;;;;;9.51;57.69;101422.38;5027634;28;20060;-25
2022/05/01 04:32:00;;;;;;;3.47;3.17;;;;;;;9.50;57.62;101421.50;5021098;28;20527;-25
2022/05/01 04:34:26;;;;;;;4.28;3.88;;;;;;;9.50;57.66;101424.13;5027830;28;20033;-25
2022/05/01 04:36:51;;;;;;;5.43;3.83;;;;;;;9.49;57.64;101417.09;5030392;28;20057;-25
2022/05/01 04:39:17;;;;;;;4.18;3.58;;;;;;;9.48;57.72;101423.22;5027910;28;20025;-25
2022/05/01 04:41:43;;;;;;;4.47;3.35;;;;;;;9.47;57.89;101423.22;5029358;28;20059;-25
2022/05/01 04:44:08;;;;;;;4.47;3.72;;;;;;;9.47;57.71;101425.88;5025906;28;20112;-25
2022/05/01 04:46:33;;;;;;;6.15;3.75;;;;;;;9.48;57.70;101425.84;5025302;28;20486;-25
2022/05/01 04:48:59;;;;;;;4.10;3.70;;;;;;;9.47;57.89;101421.47;5030751;28;20503;-25
2022/05/01 04:51:24;;;;;;;5.55;4.07;;;;;;;9.46;57.93;101424.97;5026167;28;20381;-25
2022/05/01 04:53:49;;;;;;;4.10;3.28;;;;;;;9.47;57.79;101425.88;5027128;28;20049;-25
2022/05/01 04:58:59;;;;;;;5.07;3.70;;;;;;;9.47;57.68;101425.88;4990737;28;1050109;-25
2022/05/01 05:01:24;;;;;;;4.40;4.00;;;;;;;9.46;57.92;101429.34;5028115;28;20026;-25
2022/05/01 05:03:50;;;;;;;3.88;3.47;;;;;;;9.47;57.70;101433.78;5029955;28;20120;-25
2022/05/01 05:06:15;;;;;;;5.20;4.00;;;;;;;9.46;57.76;101443.41;5028502;28;20483;-25
2022/05/01 05:11:24;;;;;;;6.63;3.55;;;;;;;9.46;57.77;101430.25;5024726;28;20082;-25
2022/05/01 05:13:52;;;;;;;4.20;3.80;;;;;;;9.47;57.89;101437.25;5032123;28;20025;-25
2022/05/01 05:16:17;;;;;;;4.20;3.20;;;;;;;9.48;57.80;101443.44;5029479;28;20187;-25
2022/05/01 05:18:43;;;;;;;4.35;3.42;;;;;;;9.49;58.15;101440.81;5027057;28;20503;-25
2022/05/01 05:21:08;;;;;;;4.20;3.80;;;;;;;9.51;58.19;101446.09;5025386;28;20083;-25
2022/05/01 05:23:33;;;;;;;4.18;3.42;;;;;;;9.50;58.20;101446.94;5025039;28;20095;-25
2022/05/01 05:25:59;;;;;;;6.07;3.70;;;;;;;9.50;58.05;101452.19;5029448;28;20029;-26
2022/05/01 05:28:25;;;;;;;5.03;3.97;;;;;;;9.52;58.24;101455.75;5028033;28;20025;-26
2022/05/01 05:30:50;;;;;;;4.03;3.63;;;;;;;9.54;58.38;101461.03;5025331;28;20053;-26
2022/05/01 05:33:17;;;;;;;4.05;3.70;;;;;;;9.54;58.59;101459.25;5022972;28;20025;-26
2022/05/01 05:35:42;;;;;;;4.15;3.70;;;;;;;9.55;58.67;101465.41;5026829;28;20049;-26
2022/05/01 05:38:07;;;;;;;5.57;3.85;;;;;;;9.55;58.75;101466.31;5027188;28;20067;-26
2022/05/01 05:40:32;;;;;;;5.40;3.88;;;;;;;9.56;59.06;101468.06;5025286;28;20029;-26
2022/05/01 05:42:58;;;;;;;4.55;3.67;;;;;;;9.56;59.18;101462.78;5027737;28;20037;-26
2022/05/01 05:45:23;;;;;;;5.57;4.10;;;;;;;9.58;59.00;101468.97;5028170;28;20029;-26
2022/05/01 05:47:49;;;;;;;4.32;3.92;;;;;;;9.61;59.09;101468.09;5026541;28;20061;-26
2022/05/01 05:50:14;;;;;;;4.68;3.70;;;;;;;9.62;59.07;101468.13;5023043;28;20029;-26
2022/05/01 05:52:40;;;;;;;6.28;4.18;;;;;;;9.63;59.23;101468.97;5027013;28;20029;-26
2022/05/01 05:55:06;;;;;;;5.03;3.83;;;;;;;9.65;59.50;101467.25;5026814;28;20021;-27
2022/05/01 05:57:31;;;;;;;5.45;4.35;;;;;;;9.68;59.38;101466.38;5027926;28;20367;-26
2022/05/01 05:59:56;;;;;;;4.38;3.97;;;;;;;9.70;59.39;101473.44;5028391;28;20025;-26
2022/05/01 06:02:23;;;;;;;9.38;4.78;;;;;;;9.72;59.84;101476.06;5019895;28;20029;-26
2022/05/01 06:04:48;;;;;;;6.80;4.47;;;;;;;9.73;59.92;101475.19;5017951;28;20060;-25
2022/05/01 06:07:13;;;;;;;7.18;5.20;;;;;;;9.76;60.15;101480.50;5023608;28;20064;-25
2022/05/01 06:09:38;;;;;;;5.60;4.50;;;;;;;9.79;60.30;101477.88;5007557;28;20443;-25
2022/05/01 06:12:04;;;;;;;4.57;4.13;;;;;;;9.83;60.17;101481.41;5024357;28;20034;-25
2022/05/01 06:14:30;;;;;;;5.55;4.30;;;;;;;9.85;60.04;101477.94;5018261;28;20037;-25
2022/05/01 06:16:55;;;;;;;6.20;4.65;;;;;;;9.90;60.16;101482.34;5025427;28;20033;-25
2022/05/01 06:19:20;;;;;;;4.82;4.32;;;;;;;9.93;60.03;101483.25;5031608;28;20317;-25
2022/05/01 06:21:46;;;;;;;5.20;4.50;;;;;;;9.97;60.34;101481.53;5032872;28;20084;-26
2022/05/01 06:24:11;;;;;;;4.50;4.10;;;;;;;10.01;60.03;101480.69;5029418;28;20116;-26
2022/05/01 06:26:36;;;;;;;6.63;4.70;;;;;;;10.05;60.22;101482.47;5028494;28;20021;-26
2022/05/01 06:29:02;;;;;;;9.07;4.40;;;;;;;10.10;59.75;101479.81;5030264;28;20477;-26
2022/05/01 06:31:28;;;;;;;4.72;4.22;;;;;;;10.16;59.75;101487.78;5031161;28;20029;-26
2022/05/01 06:33:54;;;;;;;4.80;3.83;;;;;;;10.21;60.27;101482.53;5030048;28;20376;-26
2022/05/01 06:36:19;;;;;;;6.28;4.65;;;;;;;10.27;59.83;101477.28;5033353;28;20033;-26
2022/05/01 06:38:45;;;;;;;6.10;4.97;;;;;;;10.34;60.13;101484.34;5026864;28;20040;-26
2022/05/01 06:41:11;;;;;;;8.10;4.32;;;;;;;10.39;60.24;101484.38;5030758;28;20108;-26
2022/05/01 06:43:36;;;;;;;4.65;4.20;;;;;;;10.45;60.06;101484.47;5030543;28;20180;-26
2022/05/01 06:46:02;;;;;;;7.00;4.40;;;;;;;10.55;60.08;101498.56;5029644;28;20032;-26
2022/05/01 06:48:27;;;;;;;5.68;3.80;;;;;;;10.62;59.43;101486.28;5029002;28;21153;-27
2022/05/01 06:50:53;;;;;;;4.20;3.80;;;;;;;10.69;59.73;101492.44;5032553;28;20044;-26
2022/05/01 06:53:18;;;;;;;5.00;3.75;;;;;;;10.76;59.34;101488.94;5029733;28;20377;-26
2022/05/01 06:55:44;;;;;;;7.72;4.05;;;;;;;10.83;59.40;101493.38;5033862;28;20029;-26
2022/05/01 06:58:09;;;;;;;5.35;3.95;;;;;;;10.89;59.72;101492.50;5026982;28;20075;-26
2022/05/01 07:00:36;;;;;;;5.40;3.78;;;;;;;10.96;59.28;101491.66;5028745;28;20038;-26
2022/05/01 07:03:01;;;;;;;6.90;4.18;;;;;;;11.02;59.04;101490.78;5031484;28;20044;-26
2022/05/01 07:05:27;;;;;;;6.57;4.03;;;;;;;11.11;58.91;101489.94;5023754;28;20029;-26
2022/05/01 07:07:54;;;;;;;4.70;4.30;;;;;;;11.18;58.77;101494.34;5026950;28;20029;-26
2022/05/01 07:10:20;;;;;;;4.13;3.80;;;;;;;11.22;58.90;101496.09;5025235;28;20104;-26
2022/05/01 07:12:47;;;;;;;5.97;4.50;;;;;;;11.30;58.73;101504.03;5025022;28;20056;-26
2022/05/01 07:15:12;;;;;;;6.35;4.18;;;;;;;11.36;58.15;101496.13;5029808;28;20025;-26
2022/05/01 07:17:38;;;;;;;7.43;4.68;;;;;;;11.44;58.22;101495.25;5029219;28;20116;-26
2022/05/01 07:20:04;;;;;;;4.45;3.97;;;;;;;11.49;57.85;101502.28;5030025;28;20572;-26
2022/05/01 07:22:29;;;;;;;4.53;3.42;;;;;;;11.57;57.91;101497.00;5028926;28;20445;-26
2022/05/01 07:24:55;;;;;;;5.93;4.43;;;;;;;11.59;58.05;101495.25;5029633;28;20056;-26
2022/05/01 07:27:20;;;;;;;4.25;3.78;;;;;;;11.67;57.80;101495.22;5027275;28;20124;-26
2022/05/01 07:29:46;;;;;;;6.75;4.20;;;;;;;11.72;57.56;101496.13;5028919;28;20116;-26
2022/05/01 07:32:11;;;;;;;7.65;3.78;;;;;;;11.76;57.74;101494.34;5021768;28;20017;-26
2022/05/01 07:34:37;;;;;;;6.82;4.35;;;;;;;11.83;57.19;101501.41;5025983;28;20029;-26
2022/05/01 07:37:03;;;;;;;4.88;4.25;;;;;;;11.89;57.67;101504.03;5009716;28;20061;-26
2022/05/01 07:39:28;;;;;;;5.30;4.13;;;;;;;11.93;57.41;101503.16;5021872;28;20069;-26
2022/05/01 07:41:54;;;;;;;5.60;3.92;;;;;;;11.99;57.45;101506.66;5025622;28;20034;-26
2022/05/01 07:44:19;;;;;;;4.38;3.70;;;;;;;12.04;57.13;101504.91;5021327;28;20569;-26
2022/05/01 07:46:45;;;;;;;4.65;4.07;;;;;;;12.08;57.33;101506.69;5024281;28;20017;-26
2022/05/01 07:49:10;;;;;;;6.22;4.03;;;;;;;12.12;56.80;101495.22;5024195;28;20037;-26
2022/05/01 07:51:36;;;;;;;5.32;3.67;;;;;;;12.19;56.87;101502.25;5027252;28;20021;-26
2022/05/01 07:54:02;;;;;;;4.93;4.18;;;;;;;12.23;56.76;101507.50;5025641;28;20026;-26
2022/05/01 07:56:28;;;;;;;5.75;4.60;;;;;;;12.28;57.07;101506.63;5029511;28;20051;-27
2022/05/01 07:58:54;;;;;;;4.47;3.95;;;;;;;12.33;57.04;101501.31;5029755;28;20048;-27
2022/05/01 08:01:19;;;;;;;5.22;4.00;;;;;;;12.38;56.90;101499.56;5026716;28;20037;-24
2022/05/01 08:06:29;;;;;;;6.03;4.47;;;;;;;12.49;56.38;101498.63;5028965;28;20121;-25
2022/05/01 08:08:54;;;;;;;5.60;3.75;;;;;;;12.55;56.38;101501.25;5024698;28;20116;-25
2022/05/01 08:11:20;;;;;;;4.90;4.32;;;;;;;12.57;56.87;101496.81;5028477;28;20026;-26
2022/05/01 08:13:45;;;;;;;6.32;4.47;;;;;;;12.63;56.56;101499.44;5026187;28;20397;-26
2022/05/01 08:16:10;;;;;;;5.07;3.88;;;;;;;12.68;56.46;101502.09;5019789;28;20026;-26
2022/05/01 08:21:21;;;;;;;7.47;4.10;;;;;;;12.79;56.23;101496.72;5025314;28;20638;-26
2022/05/01 08:23:46;;;;;;;4.93;4.20;;;;;;;12.82;56.11;101492.31;5024338;28;20032;-26
2022/05/01 08:26:13;;;;;;;4.68;3.95;;;;;;;12.89;56.13;101493.16;5021366;28;20038;-26
2022/05/01 08:28:40;;;;;;;6.50;4.10;;;;;;;12.98;55.99;101486.03;5020562;28;20025;-26
2022/05/01 08:31:06;;;;;;;3.60;3.30;;;;;;;13.02;55.88;101488.66;5024940;28;20021;-26
2022/05/01 08:33:35;;;;;;;6.20;3.92;;;;;;;13.06;55.63;101486.88;5027384;28;20538;-26
2022/05/01 08:36:02;;;;;;;6.90;4.13;;;;;;;13.16;55.59;101491.22;5041934;28;20029;-26
2022/05/01 08:38:28;;;;;;;7.47;4.35;;;;;;;13.23;55.46;101483.25;5025992;28;20421;-26
2022/05/01 08:40:53;;;;;;;4.05;3.65;;;;;;;13.31;55.12;101484.91;5026444;28;20032;-26
2022/05/01 08:43:20;;;;;;;4.15;3.42;;;;;;;13.38;55.06;101480.47;5029637;28;20037;-26
2022/05/01 08:45:57;;;;;;;3.40;3.08;;;;;;;13.47;55.05;101484.78;5025343;28;20036;-26
2022/05/01 08:48:30;;;;;;;3.47;3.15;;;;;;;13.56;54.48;101483.88;5028732;28;20037;-25
2022/05/01 08:50:55;;;;;;;3.50;3.20;;;;;;;13.65;54.57;101475.88;5016664;28;20111;-25
2022/05/01 08:53:22;;;;;;;3.53;3.15;;;;;;;13.75;54.33;101475.75;5023197;28;20025;-25
2022/05/01 08:55:48;;;;;;;5.43;2.80;;;;;;;13.82;54.07;101469.50;5030414;28;20477;-25
2022/05/01 08:58:14;;;;;;;5.38;3.28;;;;;;;13.90;53.71;101475.59;5033021;28;20091;-25
2022/05/01 09:00:39;;;;;;;3.72;2.88;;;;;;;14.00;53.58;101472.88;5025900;28;20068;-25
2022/05/01 09:03:06;;;;;;;3.17;2.70;;;;;;;14.10;53.39;101469.22;5024459;28;20026;-25
2022/05/01 09:05:31;;;;;;;4.03;2.85;;;;;;;14.19;53.54;101479.72;5029106;28;20116;-26
2022/05/01 09:07:57;;;;;;;3.20;2.80;;;;;;;14.28;53.44;101473.44;5042209;28;20022;-26
2022/05/01 09:10:26;;;;;;;3.30;2.88;;;;;;;14.38;53.19;101468.91;5024204;28;20028;-26
2022/05/01 09:12:55;;;;;;;3.20;2.63;;;;;;;14.47;52.93;101487.34;5030394;28;20033;-27
2022/05/01 09:15:31;;;;;;;3.40;2.92;;;;;;;14.58;53.23;101481.91;5026793;28;20033;-25
2022/05/01 09:18:14;;;;;;;3.88;3.58;;;;;;;14.38;50.40;101474.22;5017917;28;20098;-29
2022/05/01 09:21:01;;;;;;;5.47;4.20;;;;;;;13.93;50.81;101470.28;5020292;28;20068;-25
2022/05/01 09:23:37;;;;;;;6.00;3.35;;;;;;;14.12;50.68;101472.75;5026876;28;20040;-24
2022/05/01 09:26:02;;;;;;;4.28;3.80;;;;;;;14.16;50.67;101474.44;5022905;28;20030;-25
2022/05/01 09:28:28;;;;;;;7.53;3.85;;;;;;;14.57;51.06;101480.16;5025164;28;20064;-27
2022/05/01 09:30:53;;;;;;;5.07;3.95;;;;;;;14.81;51.48;101478.09;5022362;28;20041;-27
2022/05/01 09:33:19;;;;;;;5.85;3.65;;;;;;;14.97;51.51;101489.38;5041657;28;20041;-26
2022/05/01 09:35:45;;;;;;;6.63;3.55;;;;;;;15.11;51.61;101488.31;5025434;28;20164;-27
2022/05/01 09:38:19;;;;;;;5.03;3.20;;;;;;;15.27;52.10;101475.66;5023964;28;20192;-27
2022/05/01 09:40:52;;;;;;;3.72;3.25;;;;;;;15.37;51.62;101482.56;5018714;28;20060;-30
2022/05/01 09:43:36;;;;;;;4.50;3.28;;;;;;;15.51;51.75;101479.69;5018521;28;20094;-27
2022/05/01 09:46:15;;;;;;;3.58;3.00;;;;;;;15.66;51.85;101483.00;5022569;28;20109;-27
2022/05/01 09:48:43;;;;;;;4.28;3.33;;;;;;;15.77;51.54;101481.03;5029662;28;20032;-27
2022/05/01 09:51:16;;;;;;;4.65;2.95;;;;;;;15.88;51.16;101482.63;5025830;28;20239;-27
2022/05/01 09:53:42;;;;;;;3.45;3.03;;;;;;;15.99;51.18;101485.09;5024259;28;20026;-30
2022/05/01 09:56:08;;;;;;;4.20;3.47;;;;;;;16.08;50.77;101486.72;5024741;28;20555;-27
2022/05/01 09:58:33;;;;;;;3.28;2.97;;;;;;;16.20;50.54;101473.16;5022180;28;20072;-27
2022/05/01 10:01:07;;;;;;;3.55;2.80;;;;;;;16.29;50.23;101473.00;5024228;28;20030;-27
2022/05/01 10:03:34;;;;;;;4.18;2.88;;;;;;;16.40;50.40;101482.50;5016373;28;20030;-27
2022/05/01 10:06:01;;;;;;;4.93;3.10;;;;;;;16.48;50.04;101483.25;5024637;28;20041;-27
2022/05/01 10:08:27;;;;;;;3.50;2.97;;;;;;;16.58;49.89;101478.59;5004268;28;20124;-27
2022/05/01 10:10:58;;;;;;;3.63;3.10;;;;;;;16.67;49.80;101482.84;5025012;28;20457;-25
2022/05/01 10:13:25;;;;;;;7.10;3.28;;;;;;;16.64;48.90;101481.13;5020043;28;20346;-26
2022/05/01 10:15:52;;;;;;;4.38;3.67;;;;;;;16.83;49.26;101477.16;5025299;28;20033;-25
2022/05/01 10:18:17;;;;;;;8.82;2.78;;;;;;;16.95;49.41;101471.59;5023722;28;20482;-25
2022/05/01 10:20:43;;;;;;;5.63;3.08;;;;;;;17.03;49.32;101472.28;5023963;28;20116;-25
2022/05/01 10:23:10;;;;;;;4.72;3.03;;;;;;;17.16;48.71;101469.34;5027189;28;20096;-26
2022/05/01 10:25:37;;;;;;;5.43;2.67;;;;;;;17.26;49.31;101468.22;5023953;28;20037;-27
2022/05/01 10:28:16;;;;;;;4.78;3.33;;;;;;;17.36;49.30;101467.97;5023576;28;20021;-27
2022/05/01 10:34:08;;;;;;;4.85;3.50;;;;;;;17.57;48.37;101463.88;5023300;28;20037;-27
2022/05/01 10:36:58;;;;;;;4.82;3.05;;;;;;;17.67;48.58;101456.50;5025596;28;20374;-27
2022/05/01 10:39:23;;;;;;;5.00;3.13;;;;;;;17.76;48.52;101458.94;5023777;28;20535;-27
2022/05/01 10:41:49;;;;;;;3.90;3.03;;;;;;;17.85;48.73;101459.59;5023149;28;20116;-25
2022/05/01 10:44:29;;;;;;;3.75;3.22;;;;;;;17.96;48.42;101454.84;5023003;28;20033;-25
2022/05/01 10:46:55;;;;;;;3.35;2.90;;;;;;;18.01;48.06;101458.25;5026923;28;20056;-26
2022/05/01 10:49:41;;;;;;;3.47;3.00;;;;;;;18.11;48.00;101452.72;5042157;28;20071;-25
2022/05/01 10:52:20;;;;;;;3.58;3.15;;;;;;;18.21;48.05;101448.88;5021489;28;20044;-25
2022/05/01 10:54:52;;;;;;;4.45;3.15;;;;;;;18.30;48.32;101453.94;5026299;28;20021;-25
2022/05/01 10:57:18;;;;;;;3.15;2.85;;;;;;;18.39;47.98;101447.44;5039633;28;20116;-25
2022/05/01 10:59:48;;;;;;;3.58;3.25;;;;;;;18.44;47.89;101450.84;5024853;28;20096;-25
2022/05/01 11:02:24;;;;;;;4.55;3.53;;;;;;;18.53;47.75;101448.81;5025283;28;20104;-25
2022/05/01 11:04:51;;;;;;;4.80;3.28;;;;;;;18.59;47.90;101445.97;5025356;28;20043;-25
2022/05/01 11:07:17;;;;;;;4.57;3.17;;;;;;;18.63;47.28;101438.72;5034145;28;20486;-26
2022/05/01 11:09:45;;;;;;;4.15;3.75;;;;;;;18.68;47.09;101439.47;5030453;28;20108;-26
2022/05/01 11:12:11;;;;;;;5.25;3.10;;;;;;;18.72;46.86;101431.31;5032302;28;20025;-25
2022/05/01 11:14:49;;;;;;;4.82;3.28;;;;;;;18.80;46.89;101430.19;5029409;28;20112;-26
2022/05/01 11:17:14;;;;;;;4.88;3.33;;;;;;;18.85;46.94;101429.09;5026850;28;20030;-26
2022/05/01 11:19:50;;;;;;;4.47;3.20;;;;;;;18.92;47.21;101423.56;5011929;28;20025;-27
2022/05/01 11:22:15;;;;;;;5.15;3.58;;;;;;;19.01;47.04;101431.31;5028255;28;20112;-28
2022/05/01 11:24:44;;;;;;;3.75;3.45;;;;;;;19.03;46.94;101420.53;5032224;28;20113;-27
2022/05/01 11:27:17;;;;;;;3.65;3.22;;;;;;;19.09;46.93;101417.72;5033889;28;20079;-26
2022/05/01 11:30:17;;;;;;;5.60;3.33;;;;;;;19.19;46.77;101411.13;5031899;28;20556;-27
2022/05/01 11:32:46;;;;;;;5.13;3.20;;;;;;;19.27;46.78;101410.00;5043467;28;20420;-27
2022/05/01 11:35:12;;;;;;;3.80;3.50;;;;;;;19.33;46.86;101397.28;5024677;28;20083;-26
2022/05/01 11:37:48;;;;;;;4.00;3.08;;;;;;;19.41;46.65;101398.81;5025686;28;20029;-27
2022/05/01 11:40:23;;;;;;;4.20;3.15;;;;;;;19.49;47.28;101408.34;5028991;28;20115;-28
2022/05/01 11:42:49;;;;;;;3.50;3.20;;;;;;;19.50;46.90;101398.50;5025006;28;20026;-26
2022/05/01 11:45:14;;;;;;;3.50;3.17;;;;;;;19.59;46.66;101399.97;5026983;28;20040;-27
2022/05/01 11:47:40;;;;;;;6.15;3.65;;;;;;;19.66;46.44;101395.28;5030621;28;20068;-27
2022/05/01 11:50:07;;;;;;;3.65;3.35;;;;;;;19.73;46.31;101394.13;5029577;28;20544;-27
2022/05/01 11:52:36;;;;;;;3.25;2.95;;;;;;;19.79;46.17;101383.22;5027562;28;21096;-26
2022/05/01 11:55:06;;;;;;;3.80;3.40;;;;;;;19.87;45.84;101389.13;5027677;28;20175;-27